createdAt,value
2023-02-02T00:01:51.311Z,95473.16
2023-02-02T00:04:28.138Z,95472.23
2023-02-02T00:06:59.467Z,95465.38
2023-02-02T00:09:29.599Z,95463.79
2023-02-02T00:11:59.262Z,95466.24
2023-02-02T00:14:27.683Z,95467.92
2023-02-02T00:16:57.503Z,95461.60
2023-02-02T00:19:30.393Z,95459.11
2023-02-02T00:21:58.422Z,95460.41
2023-02-02T00:24:26.956Z,95457.85
2023-02-02T00:26:57.218Z,95463.02
2023-02-02T00:29:30.962Z,95466.89
2023-02-02T00:31:58.964Z,95462.41
2023-02-02T00:34:27.044Z,95460.64
2023-02-02T00:36:55.007Z,95461.31
2023-02-02T00:39:27.899Z,95458.98
2023-02-02T00:41:56.067Z,95462.27
2023-02-02T00:44:42.775Z,95462.63
2023-02-02T00:47:11.141Z,95457.21
2023-02-02T00:49:39.447Z,95456.92
2023-02-02T00:52:07.475Z,95457.15
2023-02-02T00:54:35.522Z,95456.02
2023-02-02T00:57:04.493Z,95453.50
2023-02-02T00:59:33.051Z,95451.45
2023-02-02T01:02:02.058Z,95452.96
2023-02-02T01:04:30.519Z,95450.00
2023-02-02T01:06:58.742Z,95445.88
2023-02-02T01:09:26.958Z,95440.92
2023-02-02T01:11:55.350Z,95441.42
2023-02-02T01:14:23.422Z,95434.20
2023-02-02T01:16:51.431Z,95433.13
2023-02-02T01:19:19.934Z,95432.73
2023-02-02T01:21:48.019Z,95430.96
2023-02-02T01:24:16.043Z,95429.01
2023-02-02T01:26:44.111Z,95422.90
2023-02-02T01:29:12.405Z,95422.26
2023-02-02T01:31:40.767Z,95415.31
2023-02-02T01:34:09.193Z,95413.63
2023-02-02T01:36:38.353Z,95410.61
2023-02-02T01:39:06.294Z,95408.48
2023-02-02T01:41:34.658Z,95411.46
2023-02-02T01:44:05.624Z,95409.52
2023-02-02T01:46:36.056Z,95407.77
2023-02-02T01:49:18.009Z,95408.23
2023-02-02T01:51:53.789Z,95415.89
2023-02-02T01:54:36.027Z,95416.20
2023-02-02T01:57:09.668Z,95417.73
2023-02-02T01:59:38.747Z,95417.16
2023-02-02T02:02:07.605Z,95416.34
2023-02-02T02:04:35.737Z,95414.78
2023-02-02T02:07:05.798Z,95412.94
2023-02-02T02:09:34.859Z,95409.83
2023-02-02T02:12:03.409Z,95406.40
2023-02-02T02:14:50.063Z,95401.52
2023-02-02T02:17:20.937Z,95404.02
2023-02-02T02:20:10.877Z,95398.16
2023-02-02T02:23:28.603Z,95399.64
2023-02-02T02:26:33.816Z,95398.98
2023-02-02T02:29:39.489Z,95408.09
2023-02-02T02:32:19.212Z,95410.84
2023-02-02T02:35:12.152Z,95409.42
2023-02-02T02:38:19.896Z,95408.40
2023-02-02T02:40:55.886Z,95406.15
2023-02-02T02:43:29.502Z,95402.67
2023-02-02T02:45:58.035Z,95399.96
2023-02-02T02:48:26.375Z,95397.75
2023-02-02T02:50:54.395Z,95390.54
2023-02-02T02:53:23.819Z,95386.62
2023-02-02T02:56:05.372Z,95385.05
2023-02-02T02:58:49.973Z,95378.33
2023-02-02T03:02:33.011Z,95372.39
2023-02-02T03:05:07.440Z,95364.70
2023-02-02T03:07:42.516Z,95363.60
2023-02-02T03:10:15.403Z,95361.05
2023-02-02T03:12:48.561Z,95363.27
2023-02-02T03:15:17.951Z,95355.55
2023-02-02T03:17:49.257Z,95355.36
2023-02-02T03:20:18.188Z,95349.35
2023-02-02T03:22:46.326Z,95345.52
2023-02-02T03:25:16.006Z,95340.09
2023-02-02T03:27:44.389Z,95339.65
2023-02-02T03:30:13.931Z,95338.95
2023-02-02T03:32:42.397Z,95333.99
2023-02-02T03:35:10.576Z,95335.85
2023-02-02T03:37:38.916Z,95335.23
2023-02-02T03:40:07.602Z,95336.05
2023-02-02T03:42:35.605Z,95336.23
2023-02-02T03:45:04.725Z,95335.52
2023-02-02T03:47:33.387Z,95327.71
2023-02-02T03:50:01.325Z,95320.39
2023-02-02T03:52:29.340Z,95318.60
2023-02-02T03:54:57.268Z,95324.38
2023-02-02T03:57:25.160Z,95328.46
2023-02-02T03:59:53.130Z,95328.24
2023-02-02T04:02:21.206Z,95327.98
2023-02-02T04:04:49.645Z,95329.71
2023-02-02T04:07:17.679Z,95326.35
2023-02-02T04:09:45.669Z,95323.55
2023-02-02T04:12:13.726Z,95328.11
2023-02-02T04:14:41.773Z,95331.10
2023-02-02T04:17:09.803Z,95326.63
2023-02-02T04:19:37.676Z,95326.23
2023-02-02T04:22:05.657Z,95326.51
2023-02-02T04:24:33.571Z,95322.04
2023-02-02T04:27:01.575Z,95309.60
2023-02-02T04:29:29.878Z,95304.96
2023-02-02T04:31:58.010Z,95301.70
2023-02-02T04:34:25.964Z,95300.48
2023-02-02T04:36:53.921Z,95300.78
2023-02-02T04:39:21.978Z,95303.20
2023-02-02T04:41:50.038Z,95304.95
2023-02-02T04:44:18.039Z,95302.63
2023-02-02T04:46:46.021Z,95298.61
2023-02-02T04:49:13.976Z,95300.05
2023-02-02T04:51:42.079Z,95303.52
2023-02-02T04:54:10.160Z,95312.42
2023-02-02T04:56:38.138Z,95316.01
2023-02-02T04:59:06.162Z,95318.28
2023-02-02T05:01:34.197Z,95324.00
2023-02-02T05:04:02.261Z,95326.91
2023-02-02T05:06:30.301Z,95325.99
2023-02-02T05:08:58.306Z,95333.48
2023-02-02T05:11:26.337Z,95338.68
2023-02-02T05:13:55.241Z,95339.91
2023-02-02T05:16:23.903Z,95328.14
2023-02-02T05:18:57.001Z,95326.41
2023-02-02T05:21:25.364Z,95318.57
2023-02-02T05:23:53.356Z,95313.44
2023-02-02T05:26:24.987Z,95307.34
2023-02-02T05:28:53.904Z,95295.33
2023-02-02T05:31:21.952Z,95281.80
2023-02-02T05:33:49.929Z,95283.31
2023-02-02T05:36:18.125Z,95292.66
2023-02-02T05:38:46.144Z,95288.73
2023-02-02T05:41:14.111Z,95289.20
2023-02-02T05:43:42.008Z,95290.44
2023-02-02T05:46:10.095Z,95293.49
2023-02-02T05:48:38.193Z,95295.11
2023-02-02T05:51:12.002Z,95289.48
2023-02-02T05:53:39.979Z,95297.45
2023-02-02T05:56:07.945Z,95289.55
2023-02-02T05:58:36.039Z,95301.75
2023-02-02T06:01:04.247Z,95294.92
2023-02-02T06:03:32.346Z,95289.45
2023-02-02T06:06:00.593Z,95289.14
2023-02-02T06:08:28.586Z,95290.82
2023-02-02T06:10:56.490Z,95300.20
2023-02-02T06:13:24.651Z,95297.92
2023-02-02T06:15:52.614Z,95300.27
2023-02-02T06:18:21.030Z,95296.42
2023-02-02T06:20:59.423Z,95290.05
2023-02-02T06:23:28.121Z,95278.09
2023-02-02T06:25:56.223Z,95270.20
2023-02-02T06:28:24.337Z,95272.76
2023-02-02T06:30:52.374Z,95271.73
2023-02-02T06:33:20.483Z,95274.84
2023-02-02T06:35:48.501Z,95273.88
2023-02-02T06:38:16.604Z,95285.61
2023-02-02T06:40:44.573Z,95288.05
2023-02-02T06:43:15.151Z,95293.45
2023-02-02T06:45:43.227Z,95297.27
2023-02-02T06:48:12.101Z,95302.20
2023-02-02T06:50:40.120Z,95308.67
2023-02-02T06:53:08.171Z,95310.69
2023-02-02T06:55:36.340Z,95316.53
2023-02-02T06:58:04.301Z,95320.45
2023-02-02T07:00:33.268Z,95323.52
2023-02-02T07:03:03.925Z,95330.11
2023-02-02T07:05:32.223Z,95329.90
2023-02-02T07:08:00.865Z,95332.30
2023-02-02T07:11:12.826Z,95333.89
2023-02-02T07:13:16.903Z,95338.61
2023-02-02T07:15:45.067Z,95339.11
2023-02-02T07:18:13.109Z,95344.56
2023-02-02T07:20:41.500Z,95350.02
2023-02-02T07:23:09.505Z,95351.40
2023-02-02T07:25:37.640Z,95353.77
2023-02-02T07:28:05.788Z,95352.34
2023-02-02T07:30:33.900Z,95352.05
2023-02-02T07:33:02.161Z,95354.10
2023-02-02T07:35:30.380Z,95350.73
2023-02-02T07:37:58.457Z,95351.72
2023-02-02T07:40:26.503Z,95351.73
2023-02-02T07:42:54.733Z,95355.15
2023-02-02T07:45:27.638Z,95355.86
2023-02-02T07:47:57.359Z,95357.17
2023-02-02T07:50:26.123Z,95355.91
2023-02-02T07:52:54.185Z,95350.75
2023-02-02T07:55:23.408Z,95348.35
2023-02-02T07:57:55.712Z,95350.84
2023-02-02T08:00:24.957Z,95351.33
2023-02-02T08:02:53.658Z,95354.83
2023-02-02T08:05:22.906Z,95352.89
2023-02-02T08:07:51.353Z,95357.83
2023-02-02T08:10:19.652Z,95360.21
2023-02-02T08:12:47.627Z,95361.28
2023-02-02T08:15:15.804Z,95363.70
2023-02-02T08:17:49.971Z,95359.74
2023-02-02T08:20:18.281Z,95359.87
2023-02-02T08:22:46.352Z,95357.43
2023-02-02T08:25:14.454Z,95359.52
2023-02-02T08:27:42.410Z,95363.19
2023-02-02T08:30:11.382Z,95361.17
2023-02-02T08:32:40.606Z,95361.07
2023-02-02T08:43:33.960Z,95376.74
2023-02-02T08:46:05.489Z,95380.04
2023-02-02T08:48:35.389Z,95378.41
2023-02-02T08:51:05.244Z,95374.27
2023-02-02T08:53:33.437Z,95375.38
2023-02-02T08:56:11.165Z,95380.00
2023-02-02T08:58:39.536Z,95383.67
2023-02-02T09:01:16.561Z,95383.52
2023-02-02T09:03:45.321Z,95387.91
2023-02-02T09:06:16.069Z,95391.55
2023-02-02T09:08:44.651Z,95392.56
2023-02-02T09:11:18.136Z,95396.86
2023-02-02T09:13:48.853Z,95396.48
2023-02-02T09:16:18.697Z,95397.84
2023-02-02T09:18:48.057Z,95401.20
2023-02-02T09:21:18.446Z,95400.17
2023-02-02T09:23:48.752Z,95403.80
2023-02-02T09:26:20.284Z,95408.80
2023-02-02T09:29:02.564Z,95407.64
2023-02-02T09:31:34.254Z,95410.38
2023-02-02T09:34:08.378Z,95404.59
2023-02-02T09:36:37.917Z,95412.20
2023-02-02T09:39:06.765Z,95409.09
2023-02-02T09:41:38.018Z,95408.06
2023-02-02T09:44:33.089Z,95407.89
2023-02-02T09:47:10.412Z,95407.29
2023-02-02T09:50:17.000Z,95403.17
2023-02-02T09:53:00.122Z,95400.88
2023-02-02T09:55:35.032Z,95404.64
2023-02-02T09:58:20.671Z,95401.66
2023-02-02T10:01:01.976Z,95399.92
2023-02-02T10:03:57.006Z,95399.40
2023-02-02T10:06:40.445Z,95401.67
2023-02-02T10:09:11.655Z,95405.52
2023-02-02T10:11:58.110Z,95409.34
2023-02-02T10:14:54.242Z,95414.18
2023-02-02T10:17:44.346Z,95422.25
2023-02-02T10:20:27.358Z,95424.52
2023-02-02T10:22:59.967Z,95424.57
2023-02-02T10:25:29.180Z,95431.85
2023-02-02T10:28:07.145Z,95437.05
2023-02-02T10:31:02.082Z,95434.48
2023-02-02T10:33:38.389Z,95436.03
2023-02-02T10:36:21.755Z,95431.52
2023-02-02T10:39:27.924Z,95431.67
2023-02-02T10:42:33.263Z,95434.38
2023-02-02T10:45:18.340Z,95436.17
2023-02-02T10:47:46.933Z,95439.80
2023-02-02T10:50:22.489Z,95439.09
2023-02-02T10:53:00.170Z,95436.83
2023-02-02T10:55:41.430Z,95436.73
2023-02-02T10:58:12.374Z,95439.09
2023-02-02T11:00:40.618Z,95437.67
2023-02-02T11:03:11.376Z,95438.91
2023-02-02T11:05:58.376Z,95434.84
2023-02-02T11:08:43.357Z,95438.52
2023-02-02T11:11:11.847Z,95434.34
2023-02-02T11:14:09.394Z,95436.35
2023-02-02T11:17:08.091Z,95431.48
2023-02-02T11:19:37.806Z,95429.59
2023-02-02T11:22:06.159Z,95429.84
2023-02-02T11:24:49.680Z,95433.77
2023-02-02T11:27:21.626Z,95429.91
2023-02-02T11:29:52.944Z,95427.25
2023-02-02T11:32:32.690Z,95426.30
2023-02-02T11:35:06.817Z,95426.81
2023-02-02T11:37:51.596Z,95423.66
2023-02-02T11:40:28.995Z,95424.30
2023-02-02T11:43:00.656Z,95425.98
2023-02-02T11:45:39.442Z,95425.19
2023-02-02T11:48:17.025Z,95420.63
2023-02-02T11:50:54.066Z,95425.54
2023-02-02T11:53:36.911Z,95429.15
2023-02-02T11:56:21.580Z,95428.75
2023-02-02T11:58:59.622Z,95430.15
2023-02-02T12:01:44.005Z,95431.38
2023-02-02T12:04:18.388Z,95430.54
2023-02-02T12:06:46.493Z,95440.48
2023-02-02T12:09:17.992Z,95435.18
2023-02-02T12:12:04.853Z,95433.79
2023-02-02T12:15:03.392Z,95433.75
2023-02-02T12:17:47.358Z,95427.88
2023-02-02T12:20:19.543Z,95426.63
2023-02-02T12:23:02.923Z,95427.08
2023-02-02T12:26:02.536Z,95429.26
2023-02-02T12:29:14.065Z,95423.23
2023-02-02T12:31:48.047Z,95422.88
2023-02-02T12:35:00.987Z,95428.27
2023-02-02T12:37:49.622Z,95432.64
2023-02-02T12:40:35.133Z,95434.55
2023-02-02T12:43:04.363Z,95437.84
2023-02-02T12:46:12.052Z,95441.26
2023-02-02T12:48:47.665Z,95438.41
2023-02-02T12:51:15.747Z,95442.55
2023-02-02T12:54:33.434Z,95443.03
2023-02-02T12:57:55.817Z,95440.77
2023-02-02T13:00:30.428Z,95441.35
2023-02-02T13:03:40.904Z,95440.09
2023-02-02T13:06:14.770Z,95437.54
2023-02-02T13:08:52.125Z,95439.77
2023-02-02T13:11:31.449Z,95438.55
2023-02-02T13:14:28.868Z,95438.31
2023-02-02T13:17:19.611Z,95435.79
2023-02-02T13:19:54.693Z,95435.63
2023-02-02T13:22:29.147Z,95442.64
2023-02-02T13:25:01.373Z,95441.20
2023-02-02T13:27:31.348Z,95440.65
2023-02-02T13:30:32.039Z,95448.08
2023-02-02T13:33:06.014Z,95452.52
2023-02-02T13:36:10.179Z,95458.17
2023-02-02T13:38:42.289Z,95458.08
2023-02-02T13:41:13.595Z,95464.77
2023-02-02T13:43:47.646Z,95468.88
2023-02-02T13:46:39.408Z,95474.87
2023-02-02T13:49:19.755Z,95479.67
2023-02-02T13:52:02.762Z,95479.66
2023-02-02T13:54:58.249Z,95480.16
2023-02-02T13:57:41.412Z,95486.48
2023-02-02T14:00:18.860Z,95491.45
2023-02-02T14:02:56.224Z,95493.30
2023-02-02T14:05:30.751Z,95496.60
2023-02-02T14:08:25.643Z,95498.53
2023-02-02T14:10:53.521Z,95502.50
2023-02-02T14:13:45.040Z,95503.05
2023-02-02T14:16:42.428Z,95499.95
2023-02-02T14:19:33.180Z,95504.06
2023-02-02T14:22:10.269Z,95508.78
2023-02-02T14:24:43.474Z,95510.45
2023-02-02T14:27:11.448Z,95510.44
2023-02-02T14:29:46.981Z,95511.33
2023-02-02T14:32:24.742Z,95512.70
2023-02-02T14:34:55.363Z,95510.65
2023-02-02T14:37:26.630Z,95512.06
2023-02-02T14:40:07.143Z,95511.59
2023-02-02T14:43:19.453Z,95511.91
2023-02-02T14:45:50.059Z,95507.70
2023-02-02T14:48:24.044Z,95508.77
2023-02-02T14:50:55.930Z,95507.77
2023-02-02T14:53:37.744Z,95507.02
2023-02-02T14:56:10.069Z,95509.34
2023-02-02T14:58:47.996Z,95507.20
2023-02-02T15:01:25.069Z,95513.77
2023-02-02T15:03:56.204Z,95516.61
2023-02-02T15:06:43.203Z,95519.31
2023-02-02T15:09:20.053Z,95516.99
2023-02-02T15:12:02.995Z,95518.45
2023-02-02T15:14:55.302Z,95519.39
2023-02-02T15:17:39.891Z,95519.67
2023-02-02T15:20:22.834Z,95519.48
2023-02-02T15:23:04.881Z,95521.67
2023-02-02T15:25:40.871Z,95525.42
2023-02-02T15:28:36.538Z,95525.73
2023-02-02T15:31:29.487Z,95525.55
2023-02-02T15:34:02.513Z,95529.46
2023-02-02T15:36:37.753Z,95533.25
2023-02-02T15:39:23.180Z,95536.54
2023-02-02T15:42:13.034Z,95538.44
2023-02-02T15:44:42.123Z,95537.80
2023-02-02T15:47:17.391Z,95541.34
2023-02-02T15:49:46.350Z,95540.59
2023-02-02T15:52:18.919Z,95538.30
2023-02-02T15:54:52.105Z,95536.69
2023-02-02T15:57:30.662Z,95535.52
2023-02-02T16:00:00.921Z,95537.71
2023-02-02T16:02:45.645Z,95538.73
2023-02-02T16:05:49.217Z,95543.17
2023-02-02T16:08:27.621Z,95544.70
2023-02-02T16:11:05.433Z,95549.29
2023-02-02T16:13:33.982Z,95552.98
2023-02-02T16:16:20.594Z,95557.23
2023-02-02T16:19:03.189Z,95564.17
2023-02-02T16:21:33.532Z,95570.54
2023-02-02T16:24:04.712Z,95572.81
2023-02-02T16:26:35.020Z,95577.05
2023-02-02T16:29:03.630Z,95574.67
2023-02-02T16:31:32.412Z,95581.30
2023-02-02T16:34:02.523Z,95585.28
2023-02-02T16:36:30.731Z,95588.23
2023-02-02T16:39:01.170Z,95589.23
2023-02-02T16:41:34.593Z,95591.25
2023-02-02T16:44:43.630Z,95592.89
2023-02-02T16:47:26.623Z,95595.22
2023-02-02T16:50:19.745Z,95593.93
2023-02-02T16:52:58.615Z,95598.20
2023-02-02T16:55:43.670Z,95601.42
2023-02-02T16:58:24.265Z,95599.69
2023-02-02T17:01:15.993Z,95601.37
2023-02-02T17:03:54.710Z,95603.72
2023-02-02T17:06:31.259Z,95607.08
2023-02-02T17:09:28.232Z,95607.56
2023-02-02T17:12:09.381Z,95604.30
2023-02-02T17:14:52.136Z,95603.08
2023-02-02T17:17:20.949Z,95608.58
2023-02-02T17:19:49.234Z,95614.77
2023-02-02T17:22:20.605Z,95615.18
2023-02-02T17:24:51.540Z,95612.55
2023-02-02T17:27:29.206Z,95609.11
2023-02-02T17:30:00.022Z,95616.06
2023-02-02T17:32:28.093Z,95618.52
2023-02-02T17:34:56.043Z,95618.73
2023-02-02T17:37:24.199Z,95623.02
2023-02-02T17:39:52.344Z,95622.27
2023-02-02T17:42:26.950Z,95625.63
2023-02-02T17:44:54.962Z,95629.83
2023-02-02T17:47:22.949Z,95631.47
2023-02-02T17:49:50.993Z,95631.05
2023-02-02T17:52:19.765Z,95631.17
2023-02-02T17:54:47.759Z,95634.52
2023-02-02T17:57:15.779Z,95636.67
2023-02-02T17:59:43.787Z,95634.46
2023-02-02T18:02:15.308Z,95634.91
2023-02-02T18:04:45.551Z,95636.71
2023-02-02T18:07:13.864Z,95636.17
2023-02-02T18:09:41.835Z,95635.44
2023-02-02T18:12:09.845Z,95636.46
2023-02-02T18:14:38.294Z,95639.08
2023-02-02T18:17:08.371Z,95639.59
2023-02-02T18:19:36.592Z,95638.14
2023-02-02T18:22:06.600Z,95640.89
2023-02-02T18:24:34.801Z,95641.60
2023-02-02T18:27:02.983Z,95638.92
2023-02-02T18:29:31.065Z,95642.34
2023-02-02T18:31:59.609Z,95644.42
2023-02-02T18:34:35.564Z,95647.70
2023-02-02T18:37:04.068Z,95649.84
2023-02-02T18:39:32.507Z,95652.29
2023-02-02T18:42:00.762Z,95653.44
2023-02-02T18:44:29.541Z,95654.04
2023-02-02T18:46:57.510Z,95654.15
2023-02-02T18:49:25.452Z,95652.71
2023-02-02T18:51:53.348Z,95656.23
2023-02-02T18:54:22.424Z,95658.54
2023-02-02T18:56:50.406Z,95663.88
2023-02-02T18:59:18.501Z,95668.40
2023-02-02T19:01:48.427Z,95669.05
2023-02-02T19:04:16.550Z,95670.20
2023-02-02T19:07:02.963Z,95668.23
2023-02-02T19:09:30.944Z,95670.27
2023-02-02T19:11:59.357Z,95671.98
2023-02-02T19:14:34.387Z,95671.98
2023-02-02T19:17:24.923Z,95675.70
2023-02-02T19:19:53.080Z,95677.89
2023-02-02T19:22:26.953Z,95681.65
2023-02-02T19:24:54.944Z,95678.19
2023-02-02T19:27:24.750Z,95681.29
2023-02-02T19:29:59.935Z,95683.86
2023-02-02T19:32:32.307Z,95685.42
2023-02-02T19:35:05.572Z,95688.81
2023-02-02T19:37:38.965Z,95695.33
2023-02-02T19:40:07.159Z,95699.54
2023-02-02T19:42:40.571Z,95704.07
2023-02-02T19:45:21.345Z,95703.27
2023-02-02T19:47:51.249Z,95707.17
2023-02-02T19:50:21.946Z,95712.34
2023-02-02T19:52:51.304Z,95713.17
2023-02-02T19:55:28.457Z,95714.55
2023-02-02T19:58:09.732Z,95716.23
2023-02-02T20:00:39.013Z,95716.92
2023-02-02T20:03:22.773Z,95717.45
2023-02-02T20:05:52.687Z,95717.79
2023-02-02T20:08:38.630Z,95721.13
2023-02-02T20:11:37.193Z,95723.13
2023-02-02T20:14:29.463Z,95725.37
2023-02-02T20:17:06.696Z,95730.23
2023-02-02T20:19:40.198Z,95730.51
2023-02-02T20:22:29.218Z,95736.18
2023-02-02T20:24:57.958Z,95738.27
2023-02-02T20:27:28.693Z,95738.52
2023-02-02T20:30:07.859Z,95741.33
2023-02-02T20:32:41.076Z,95746.76
2023-02-02T20:35:39.980Z,95754.98
2023-02-02T20:38:29.662Z,95764.70
2023-02-02T20:40:58.192Z,95766.65
2023-02-02T20:43:26.137Z,95768.09
2023-02-02T20:45:54.200Z,95771.36
2023-02-02T20:48:22.701Z,95773.48
2023-02-02T20:50:51.154Z,95775.20
2023-02-02T20:53:19.461Z,95777.20
2023-02-02T20:55:47.698Z,95780.05
2023-02-02T20:58:15.731Z,95786.98
2023-02-02T21:00:43.779Z,95791.89
2023-02-02T21:03:13.291Z,95796.23
2023-02-02T21:05:41.311Z,95798.85
2023-02-02T21:08:10.775Z,95800.10
2023-02-02T21:10:39.007Z,95799.46
2023-02-02T21:13:07.173Z,95798.64
2023-02-02T21:15:36.553Z,95798.19
2023-02-02T21:18:04.652Z,95797.34
2023-02-02T21:20:33.305Z,95799.98
2023-02-02T21:23:02.645Z,95799.23
2023-02-02T21:25:30.898Z,95800.41
2023-02-02T21:28:00.399Z,95802.90
2023-02-02T21:30:29.155Z,95802.73
2023-02-02T21:32:57.357Z,95803.11
2023-02-02T21:35:26.808Z,95801.98
2023-02-02T21:37:57.786Z,95806.85
2023-02-02T21:40:29.801Z,95811.56
2023-02-02T21:43:09.588Z,95815.89
2023-02-02T21:45:38.705Z,95821.87
2023-02-02T21:48:22.072Z,95826.81
2023-02-02T21:50:50.069Z,95831.48
2023-02-02T21:53:27.199Z,95837.07
2023-02-02T21:55:59.551Z,95845.48
2023-02-02T21:58:35.114Z,95857.22
2023-02-02T22:01:15.519Z,95865.71
2023-02-02T22:03:46.963Z,95866.67
2023-02-02T22:06:21.116Z,95868.70
2023-02-02T22:08:50.863Z,95868.70
2023-02-02T22:11:29.549Z,95866.87
2023-02-02T22:14:11.743Z,95869.38
2023-02-02T22:16:45.541Z,95870.05
2023-02-02T22:19:25.952Z,95872.52
2023-02-02T22:22:03.852Z,95873.10
2023-02-02T22:24:31.941Z,95869.73
2023-02-02T22:27:00.167Z,95873.86
2023-02-02T22:29:34.403Z,95879.83
2023-02-02T22:32:02.617Z,95879.84
2023-02-02T22:34:31.429Z,95881.17
2023-02-02T22:36:59.483Z,95882.36
2023-02-02T22:39:27.645Z,95884.02
2023-02-02T22:41:55.711Z,95883.00
2023-02-02T22:44:23.701Z,95881.84
2023-02-02T22:46:52.013Z,95878.77
2023-02-02T22:49:20.058Z,95883.85
2023-02-02T22:51:48.090Z,95885.36
2023-02-02T22:54:16.206Z,95889.45
2023-02-02T22:56:44.239Z,95892.02
2023-02-02T22:59:12.479Z,95891.64
2023-02-02T23:01:40.522Z,95890.95
2023-02-02T23:04:08.658Z,95893.45
2023-02-02T23:06:36.745Z,95894.92
2023-02-02T23:09:04.837Z,95899.35
2023-02-02T23:11:34.669Z,95904.95
2023-02-02T23:14:03.092Z,95908.02
2023-02-02T23:16:31.253Z,95911.30
2023-02-02T23:18:59.508Z,95909.42
2023-02-02T23:21:27.584Z,95913.64
2023-02-02T23:23:56.101Z,95917.74
2023-02-02T23:26:25.777Z,95925.41
2023-02-02T23:28:53.833Z,95932.92
2023-02-02T23:31:22.036Z,95942.41
2023-02-02T23:33:50.171Z,95944.30
2023-02-02T23:36:18.322Z,95946.75
2023-02-02T23:38:46.366Z,95946.11
2023-02-02T23:41:15.696Z,95949.26
2023-02-02T23:43:43.749Z,95949.92
2023-02-02T23:46:12.471Z,95954.35
2023-02-02T23:48:40.586Z,95951.45
2023-02-02T23:51:09.397Z,95953.35
2023-02-02T23:53:38.628Z,95957.14
2023-02-02T23:56:07.218Z,95963.83
2023-02-02T23:58:35.719Z,95970.02
